sensor_id;sensor_type;location;lat;lon;timestamp;P1;durP1;ratioP1;P2;durP2;ratioP2
74375;SDS011;62812;55.188;61.302;2023-12-29T00:00:50;6.15;;;2.80;;
74375;SDS011;62812;55.188;61.302;2023-12-29T00:03:20;6.18;;;2.55;;
74375;SDS011;62812;55.188;61.302;2023-12-29T00:05:46;6.90;;;2.33;;
74375;SDS011;62812;55.188;61.302;2023-12-29T00:08:13;5.25;;;1.80;;
74375;SDS011;62812;55.188;61.302;2023-12-29T00:10:39;6.03;;;1.83;;
74375;SDS011;62812;55.188;61.302;2023-12-29T00:13:06;3.85;;;1.80;;
74375;SDS011;62812;55.188;61.302;2023-12-29T00:15:32;4.40;;;1.73;;
74375;SDS011;62812;55.188;61.302;2023-12-29T00:17:59;3.85;;;1.58;;
74375;SDS011;62812;55.188;61.302;2023-12-29T00:20:26;4.00;;;1.80;;
74375;SDS011;62812;55.188;61.302;2023-12-29T00:22:54;3.88;;;1.85;;
74375;SDS011;62812;55.188;61.302;2023-12-29T00:25:24;4.82;;;2.17;;
74375;SDS011;62812;55.188;61.302;2023-12-29T00:27:51;6.53;;;2.13;;
74375;SDS011;62812;55.188;61.302;2023-12-29T00:30:18;5.90;;;2.42;;
74375;SDS011;62812;55.188;61.302;2023-12-29T00:32:46;4.70;;;1.98;;
74375;SDS011;62812;55.188;61.302;2023-12-29T00:35:13;5.63;;;2.53;;
74375;SDS011;62812;55.188;61.302;2023-12-29T00:37:43;4.95;;;2.08;;
74375;SDS011;62812;55.188;61.302;2023-12-29T00:40:10;5.47;;;2.03;;
74375;SDS011;62812;55.188;61.302;2023-12-29T00:42:37;6.75;;;2.13;;
74375;SDS011;62812;55.188;61.302;2023-12-29T00:45:04;4.22;;;1.95;;
74375;SDS011;62812;55.188;61.302;2023-12-29T00:47:32;6.85;;;2.80;;
74375;SDS011;62812;55.188;61.302;2023-12-29T00:49:59;8.48;;;3.10;;
74375;SDS011;62812;55.188;61.302;2023-12-29T00:55:19;6.68;;;1.92;;
74375;SDS011;62812;55.188;61.302;2023-12-29T00:57:46;6.82;;;2.03;;
74375;SDS011;62812;55.188;61.302;2023-12-29T01:00:13;4.80;;;2.15;;
74375;SDS011;62812;55.188;61.302;2023-12-29T01:02:40;6.38;;;2.47;;
74375;SDS011;62812;55.188;61.302;2023-12-29T01:05:07;5.90;;;2.05;;
74375;SDS011;62812;55.188;61.302;2023-12-29T01:07:34;5.05;;;2.20;;
74375;SDS011;62812;55.188;61.302;2023-12-29T01:10:03;5.72;;;2.47;;
74375;SDS011;62812;55.188;61.302;2023-12-29T01:12:30;4.30;;;1.80;;
74375;SDS011;62812;55.188;61.302;2023-12-29T01:14:57;5.32;;;2.22;;
74375;SDS011;62812;55.188;61.302;2023-12-29T01:17:23;7.60;;;2.78;;
74375;SDS011;62812;55.188;61.302;2023-12-29T01:19:50;3.70;;;1.55;;
74375;SDS011;62812;55.188;61.302;2023-12-29T01:22:17;5.10;;;2.10;;
74375;SDS011;62812;55.188;61.302;2023-12-29T01:24:44;5.55;;;2.25;;
74375;SDS011;62812;55.188;61.302;2023-12-29T01:27:12;7.55;;;2.28;;
74375;SDS011;62812;55.188;61.302;2023-12-29T01:29:39;6.22;;;2.08;;
74375;SDS011;62812;55.188;61.302;2023-12-29T01:32:06;7.35;;;2.30;;
74375;SDS011;62812;55.188;61.302;2023-12-29T01:34:34;3.33;;;1.23;;
74375;SDS011;62812;55.188;61.302;2023-12-29T01:37:01;3.00;;;1.20;;
74375;SDS011;62812;55.188;61.302;2023-12-29T01:39:29;6.32;;;1.58;;
74375;SDS011;62812;55.188;61.302;2023-12-29T01:41:56;5.82;;;2.00;;
74375;SDS011;62812;55.188;61.302;2023-12-29T01:44:24;5.97;;;2.13;;
74375;SDS011;62812;55.188;61.302;2023-12-29T01:46:51;6.65;;;2.58;;
74375;SDS011;62812;55.188;61.302;2023-12-29T01:49:21;6.38;;;2.30;;
74375;SDS011;62812;55.188;61.302;2023-12-29T01:51:49;3.88;;;1.50;;
74375;SDS011;62812;55.188;61.302;2023-12-29T01:54:17;4.57;;;1.77;;
74375;SDS011;62812;55.188;61.302;2023-12-29T01:56:45;6.93;;;1.20;;
74375;SDS011;62812;55.188;61.302;2023-12-29T01:59:13;5.88;;;2.35;;
74375;SDS011;62812;55.188;61.302;2023-12-29T02:01:41;4.15;;;1.77;;
74375;SDS011;62812;55.188;61.302;2023-12-29T02:04:09;5.53;;;2.25;;
74375;SDS011;62812;55.188;61.302;2023-12-29T02:06:38;4.47;;;1.83;;
74375;SDS011;62812;55.188;61.302;2023-12-29T02:09:05;5.55;;;2.10;;
74375;SDS011;62812;55.188;61.302;2023-12-29T02:11:33;5.40;;;1.70;;
74375;SDS011;62812;55.188;61.302;2023-12-29T02:13:59;8.83;;;3.00;;
74375;SDS011;62812;55.188;61.302;2023-12-29T02:16:29;5.70;;;2.05;;
74375;SDS011;62812;55.188;61.302;2023-12-29T02:19:07;6.55;;;2.65;;
74375;SDS011;62812;55.188;61.302;2023-12-29T02:21:45;7.15;;;2.38;;
74375;SDS011;62812;55.188;61.302;2023-12-29T02:24:12;5.28;;;2.05;;
74375;SDS011;62812;55.188;61.302;2023-12-29T02:26:40;4.88;;;1.75;;
74375;SDS011;62812;55.188;61.302;2023-12-29T02:29:14;6.90;;;1.58;;
74375;SDS011;62812;55.188;61.302;2023-12-29T02:31:46;4.57;;;1.80;;
74375;SDS011;62812;55.188;61.302;2023-12-29T02:34:17;8.50;;;2.03;;
74375;SDS011;62812;55.188;61.302;2023-12-29T02:36:45;3.10;;;1.45;;
74375;SDS011;62812;55.188;61.302;2023-12-29T02:39:14;4.72;;;1.63;;
74375;SDS011;62812;55.188;61.302;2023-12-29T02:41:48;3.95;;;1.58;;
74375;SDS011;62812;55.188;61.302;2023-12-29T02:44:14;5.63;;;2.25;;
74375;SDS011;62812;55.188;61.302;2023-12-29T02:46:41;5.18;;;2.38;;
74375;SDS011;62812;55.188;61.302;2023-12-29T02:49:08;2.38;;;1.23;;
74375;SDS011;62812;55.188;61.302;2023-12-29T02:51:39;11.88;;;2.10;;
74375;SDS011;62812;55.188;61.302;2023-12-29T02:54:11;4.80;;;1.63;;
74375;SDS011;62812;55.188;61.302;2023-12-29T02:56:38;4.43;;;1.52;;
74375;SDS011;62812;55.188;61.302;2023-12-29T02:59:06;2.85;;;1.27;;
74375;SDS011;62812;55.188;61.302;2023-12-29T03:01:34;4.40;;;1.98;;
74375;SDS011;62812;55.188;61.302;2023-12-29T03:04:01;3.95;;;1.40;;
74375;SDS011;62812;55.188;61.302;2023-12-29T03:06:28;5.30;;;2.05;;
74375;SDS011;62812;55.188;61.302;2023-12-29T03:08:55;3.00;;;1.02;;
74375;SDS011;62812;55.188;61.302;2023-12-29T03:11:25;5.22;;;1.73;;
74375;SDS011;62812;55.188;61.302;2023-12-29T03:13:52;2.78;;;1.13;;
74375;SDS011;62812;55.188;61.302;2023-12-29T03:16:23;4.35;;;1.50;;
74375;SDS011;62812;55.188;61.302;2023-12-29T03:18:51;3.42;;;1.42;;
74375;SDS011;62812;55.188;61.302;2023-12-29T03:21:18;5.07;;;1.98;;
74375;SDS011;62812;55.188;61.302;2023-12-29T03:23:48;3.95;;;1.50;;
74375;SDS011;62812;55.188;61.302;2023-12-29T03:26:14;3.35;;;1.05;;
74375;SDS011;62812;55.188;61.302;2023-12-29T03:28:41;3.00;;;1.30;;
74375;SDS011;62812;55.188;61.302;2023-12-29T03:31:08;5.70;;;1.65;;
74375;SDS011;62812;55.188;61.302;2023-12-29T03:33:40;4.85;;;2.17;;
74375;SDS011;62812;55.188;61.302;2023-12-29T03:36:08;5.70;;;2.33;;
74375;SDS011;62812;55.188;61.302;2023-12-29T03:38:35;3.45;;;1.58;;
74375;SDS011;62812;55.188;61.302;2023-12-29T03:41:02;3.75;;;1.67;;
74375;SDS011;62812;55.188;61.302;2023-12-29T03:43:29;4.13;;;1.77;;
74375;SDS011;62812;55.188;61.302;2023-12-29T03:46:00;4.28;;;1.33;;
74375;SDS011;62812;55.188;61.302;2023-12-29T03:48:27;3.53;;;1.02;;
74375;SDS011;62812;55.188;61.302;2023-12-29T03:50:55;2.60;;;1.05;;
74375;SDS011;62812;55.188;61.302;2023-12-29T03:53:22;3.75;;;1.60;;
74375;SDS011;62812;55.188;61.302;2023-12-29T03:55:48;6.15;;;1.92;;
74375;SDS011;62812;55.188;61.302;2023-12-29T03:58:15;3.85;;;1.15;;
74375;SDS011;62812;55.188;61.302;2023-12-29T04:00:42;4.88;;;1.63;;
74375;SDS011;62812;55.188;61.302;2023-12-29T04:03:09;5.22;;;1.40;;
74375;SDS011;62812;55.188;61.302;2023-12-29T04:05:45;4.43;;;1.70;;
74375;SDS011;62812;55.188;61.302;2023-12-29T04:08:13;3.53;;;1.20;;
74375;SDS011;62812;55.188;61.302;2023-12-29T04:10:40;3.65;;;1.13;;
74375;SDS011;62812;55.188;61.302;2023-12-29T04:13:07;2.35;;;0.88;;
74375;SDS011;62812;55.188;61.302;2023-12-29T04:15:33;3.17;;;0.77;;
74375;SDS011;62812;55.188;61.302;2023-12-29T04:18:00;2.08;;;0.98;;
74375;SDS011;62812;55.188;61.302;2023-12-29T04:20:27;3.30;;;1.17;;
74375;SDS011;62812;55.188;61.302;2023-12-29T04:22:54;3.20;;;1.15;;
74375;SDS011;62812;55.188;61.302;2023-12-29T04:28:04;3.65;;;1.40;;
74375;SDS011;62812;55.188;61.302;2023-12-29T04:30:31;1.92;;;0.68;;
74375;SDS011;62812;55.188;61.302;2023-12-29T04:32:57;2.85;;;0.90;;
74375;SDS011;62812;55.188;61.302;2023-12-29T04:35:24;2.55;;;0.88;;
74375;SDS011;62812;55.188;61.302;2023-12-29T04:37:51;2.38;;;0.93;;
74375;SDS011;62812;55.188;61.302;2023-12-29T04:40:19;6.75;;;1.80;;
74375;SDS011;62812;55.188;61.302;2023-12-29T04:42:49;4.55;;;1.33;;
74375;SDS011;62812;55.188;61.302;2023-12-29T04:45:18;2.60;;;0.93;;
74375;SDS011;62812;55.188;61.302;2023-12-29T04:47:45;2.20;;;0.77;;
74375;SDS011;62812;55.188;61.302;2023-12-29T04:50:12;2.78;;;0.95;;
74375;SDS011;62812;55.188;61.302;2023-12-29T04:52:39;4.93;;;1.70;;
74375;SDS011;62812;55.188;61.302;2023-12-29T04:55:06;1.85;;;0.85;;
74375;SDS011;62812;55.188;61.302;2023-12-29T04:57:34;3.78;;;1.65;;
74375;SDS011;62812;55.188;61.302;2023-12-29T05:00:03;1.42;;;0.60;;
74375;SDS011;62812;55.188;61.302;2023-12-29T05:02:32;1.20;;;0.50;;
74375;SDS011;62812;55.188;61.302;2023-12-29T05:04:59;3.20;;;1.40;;
74375;SDS011;62812;55.188;61.302;2023-12-29T05:07:26;8.63;;;1.40;;
74375;SDS011;62812;55.188;61.302;2023-12-29T05:09:53;2.45;;;0.75;;
74375;SDS011;62812;55.188;61.302;2023-12-29T05:12:20;1.90;;;0.93;;
74375;SDS011;62812;55.188;61.302;2023-12-29T05:14:47;2.25;;;0.88;;
74375;SDS011;62812;55.188;61.302;2023-12-29T05:17:15;2.33;;;0.85;;
74375;SDS011;62812;55.188;61.302;2023-12-29T05:19:43;3.20;;;0.98;;
74375;SDS011;62812;55.188;61.302;2023-12-29T05:22:10;1.80;;;0.77;;
74375;SDS011;62812;55.188;61.302;2023-12-29T05:24:42;5.97;;;1.38;;
74375;SDS011;62812;55.188;61.302;2023-12-29T05:27:11;2.10;;;0.88;;
74375;SDS011;62812;55.188;61.302;2023-12-29T05:29:38;3.00;;;1.08;;
74375;SDS011;62812;55.188;61.302;2023-12-29T05:32:05;3.63;;;1.35;;
74375;SDS011;62812;55.188;61.302;2023-12-29T05:34:36;2.22;;;0.70;;
74375;SDS011;62812;55.188;61.302;2023-12-29T05:37:03;2.78;;;1.05;;
74375;SDS011;62812;55.188;61.302;2023-12-29T05:39:30;2.65;;;0.82;;
74375;SDS011;62812;55.188;61.302;2023-12-29T05:41:57;5.85;;;2.10;;
74375;SDS011;62812;55.188;61.302;2023-12-29T05:44:24;4.78;;;1.55;;
74375;SDS011;62812;55.188;61.302;2023-12-29T05:46:51;3.30;;;1.30;;
74375;SDS011;62812;55.188;61.302;2023-12-29T05:49:23;4.95;;;1.80;;
74375;SDS011;62812;55.188;61.302;2023-12-29T05:51:55;2.08;;;0.77;;
74375;SDS011;62812;55.188;61.302;2023-12-29T05:54:21;3.13;;;1.02;;
74375;SDS011;62812;55.188;61.302;2023-12-29T05:56:49;4.03;;;1.60;;
74375;SDS011;62812;55.188;61.302;2023-12-29T05:59:31;4.47;;;1.80;;
74375;SDS011;62812;55.188;61.302;2023-12-29T06:02:03;4.05;;;1.35;;
74375;SDS011;62812;55.188;61.302;2023-12-29T06:04:30;5.45;;;2.05;;
74375;SDS011;62812;55.188;61.302;2023-12-29T06:07:02;4.97;;;1.45;;
74375;SDS011;62812;55.188;61.302;2023-12-29T06:09:29;4.90;;;1.63;;
74375;SDS011;62812;55.188;61.302;2023-12-29T06:11:56;6.88;;;1.40;;
74375;SDS011;62812;55.188;61.302;2023-12-29T06:17:16;2.42;;;0.98;;
74375;SDS011;62812;55.188;61.302;2023-12-29T06:20:44;3.88;;;1.38;;
74375;SDS011;62812;55.188;61.302;2023-12-29T06:23:16;4.78;;;1.55;;
74375;SDS011;62812;55.188;61.302;2023-12-29T06:25:44;4.10;;;1.33;;
74375;SDS011;62812;55.188;61.302;2023-12-29T06:28:12;4.20;;;1.50;;
74375;SDS011;62812;55.188;61.302;2023-12-29T06:30:39;3.90;;;1.15;;
74375;SDS011;62812;55.188;61.302;2023-12-29T06:33:05;4.80;;;2.08;;
74375;SDS011;62812;55.188;61.302;2023-12-29T06:35:32;6.32;;;2.17;;
74375;SDS011;62812;55.188;61.302;2023-12-29T06:38:01;2.88;;;1.17;;
74375;SDS011;62812;55.188;61.302;2023-12-29T06:43:11;4.00;;;0.90;;
74375;SDS011;62812;55.188;61.302;2023-12-29T06:45:42;5.07;;;2.03;;
74375;SDS011;62812;55.188;61.302;2023-12-29T06:48:16;3.85;;;1.38;;
74375;SDS011;62812;55.188;61.302;2023-12-29T06:50:50;3.70;;;1.70;;
74375;SDS011;62812;55.188;61.302;2023-12-29T06:53:17;5.15;;;1.95;;
74375;SDS011;62812;55.188;61.302;2023-12-29T06:55:47;7.78;;;1.85;;
74375;SDS011;62812;55.188;61.302;2023-12-29T06:58:16;5.07;;;1.80;;
74375;SDS011;62812;55.188;61.302;2023-12-29T07:00:42;6.50;;;2.08;;
74375;SDS011;62812;55.188;61.302;2023-12-29T07:03:15;5.32;;;2.03;;
74375;SDS011;62812;55.188;61.302;2023-12-29T07:05:46;2.80;;;1.48;;
74375;SDS011;62812;55.188;61.302;2023-12-29T07:08:34;3.53;;;1.33;;
74375;SDS011;62812;55.188;61.302;2023-12-29T07:11:06;7.18;;;1.88;;
74375;SDS011;62812;55.188;61.302;2023-12-29T07:13:36;3.50;;;1.30;;
74375;SDS011;62812;55.188;61.302;2023-12-29T07:16:03;3.00;;;1.52;;
74375;SDS011;62812;55.188;61.302;2023-12-29T07:18:33;4.15;;;1.65;;
74375;SDS011;62812;55.188;61.302;2023-12-29T07:21:03;3.13;;;1.48;;
74375;SDS011;62812;55.188;61.302;2023-12-29T07:23:36;4.43;;;1.45;;
74375;SDS011;62812;55.188;61.302;2023-12-29T07:26:04;2.03;;;0.70;;
74375;SDS011;62812;55.188;61.302;2023-12-29T07:29:01;6.00;;;1.50;;
74375;SDS011;62812;55.188;61.302;2023-12-29T07:32:03;4.45;;;1.35;;
74375;SDS011;62812;55.188;61.302;2023-12-29T07:34:31;4.13;;;1.60;;
74375;SDS011;62812;55.188;61.302;2023-12-29T07:36:57;5.88;;;1.90;;
74375;SDS011;62812;55.188;61.302;2023-12-29T07:39:27;3.70;;;1.20;;
74375;SDS011;62812;55.188;61.302;2023-12-29T07:41:57;7.25;;;2.08;;
74375;SDS011;62812;55.188;61.302;2023-12-29T07:44:23;4.10;;;1.45;;
74375;SDS011;62812;55.188;61.302;2023-12-29T07:46:53;5.45;;;1.75;;
74375;SDS011;62812;55.188;61.302;2023-12-29T07:49:19;7.47;;;2.30;;
74375;SDS011;62812;55.188;61.302;2023-12-29T07:51:47;6.75;;;2.05;;
74375;SDS011;62812;55.188;61.302;2023-12-29T07:54:16;4.82;;;1.65;;
74375;SDS011;62812;55.188;61.302;2023-12-29T07:56:43;4.53;;;1.80;;
74375;SDS011;62812;55.188;61.302;2023-12-29T07:59:16;3.58;;;1.42;;
74375;SDS011;62812;55.188;61.302;2023-12-29T08:09:39;2.63;;;1.13;;
74375;SDS011;62812;55.188;61.302;2023-12-29T08:12:06;4.43;;;1.38;;
74375;SDS011;62812;55.188;61.302;2023-12-29T08:17:32;3.22;;;1.35;;
74375;SDS011;62812;55.188;61.302;2023-12-29T08:20:14;5.60;;;1.60;;
74375;SDS011;62812;55.188;61.302;2023-12-29T08:22:46;3.17;;;1.40;;
74375;SDS011;62812;55.188;61.302;2023-12-29T08:25:13;2.75;;;0.70;;
74375;SDS011;62812;55.188;61.302;2023-12-29T08:27:42;3.22;;;1.27;;
74375;SDS011;62812;55.188;61.302;2023-12-29T08:30:13;2.35;;;0.93;;
74375;SDS011;62812;55.188;61.302;2023-12-29T08:32:40;2.08;;;0.98;;
74375;SDS011;62812;55.188;61.302;2023-12-29T08:35:06;1.42;;;0.65;;
74375;SDS011;62812;55.188;61.302;2023-12-29T08:37:33;3.13;;;1.02;;
74375;SDS011;62812;55.188;61.302;2023-12-29T08:39:59;1.95;;;0.70;;
74375;SDS011;62812;55.188;61.302;2023-12-29T08:42:33;3.83;;;1.08;;
74375;SDS011;62812;55.188;61.302;2023-12-29T08:45:07;1.85;;;1.05;;
74375;SDS011;62812;55.188;61.302;2023-12-29T08:47:36;3.60;;;1.23;;
74375;SDS011;62812;55.188;61.302;2023-12-29T08:50:03;4.50;;;1.30;;
74375;SDS011;62812;55.188;61.302;2023-12-29T08:52:32;3.50;;;1.17;;
74375;SDS011;62812;55.188;61.302;2023-12-29T08:55:02;3.17;;;1.10;;
74375;SDS011;62812;55.188;61.302;2023-12-29T08:57:31;4.70;;;1.80;;
74375;SDS011;62812;55.188;61.302;2023-12-29T08:59:58;1.88;;;0.63;;
74375;SDS011;62812;55.188;61.302;2023-12-29T09:02:24;2.97;;;0.88;;
74375;SDS011;62812;55.188;61.302;2023-12-29T09:04:52;2.58;;;0.80;;
74375;SDS011;62812;55.188;61.302;2023-12-29T09:07:22;3.13;;;1.35;;
74375;SDS011;62812;55.188;61.302;2023-12-29T09:09:48;1.65;;;0.73;;
74375;SDS011;62812;55.188;61.302;2023-12-29T09:12:15;5.05;;;1.50;;
74375;SDS011;62812;55.188;61.302;2023-12-29T09:14:42;4.88;;;1.80;;
74375;SDS011;62812;55.188;61.302;2023-12-29T09:17:08;4.85;;;1.50;;
74375;SDS011;62812;55.188;61.302;2023-12-29T09:19:37;4.07;;;1.17;;
74375;SDS011;62812;55.188;61.302;2023-12-29T09:22:06;2.60;;;1.02;;
74375;SDS011;62812;55.188;61.302;2023-12-29T09:24:32;4.13;;;1.58;;
74375;SDS011;62812;55.188;61.302;2023-12-29T09:26:58;3.53;;;0.93;;
74375;SDS011;62812;55.188;61.302;2023-12-29T09:29:25;3.75;;;0.88;;
74375;SDS011;62812;55.188;61.302;2023-12-29T09:31:52;4.45;;;1.70;;
74375;SDS011;62812;55.188;61.302;2023-12-29T09:34:18;3.55;;;1.35;;
74375;SDS011;62812;55.188;61.302;2023-12-29T09:36:45;3.22;;;1.25;;
74375;SDS011;62812;55.188;61.302;2023-12-29T09:39:15;2.40;;;1.02;;
74375;SDS011;62812;55.188;61.302;2023-12-29T09:41:45;4.22;;;1.48;;
74375;SDS011;62812;55.188;61.302;2023-12-29T09:46:46;3.25;;;1.02;;
74375;SDS011;62812;55.188;61.302;2023-12-29T09:49:16;2.90;;;0.93;;
74375;SDS011;62812;55.188;61.302;2023-12-29T09:51:45;4.72;;;1.27;;
74375;SDS011;62812;55.188;61.302;2023-12-29T09:54:14;3.13;;;1.27;;
74375;SDS011;62812;55.188;61.302;2023-12-29T09:56:41;1.88;;;0.80;;
74375;SDS011;62812;55.188;61.302;2023-12-29T09:59:08;2.83;;;0.80;;
74375;SDS011;62812;55.188;61.302;2023-12-29T10:01:41;2.30;;;0.88;;
74375;SDS011;62812;55.188;61.302;2023-12-29T10:04:09;2.28;;;0.70;;
74375;SDS011;62812;55.188;61.302;2023-12-29T10:06:36;2.00;;;0.75;;
74375;SDS011;62812;55.188;61.302;2023-12-29T10:09:06;3.15;;;1.30;;
74375;SDS011;62812;55.188;61.302;2023-12-29T10:11:38;1.35;;;0.55;;
74375;SDS011;62812;55.188;61.302;2023-12-29T10:14:12;3.13;;;1.30;;
74375;SDS011;62812;55.188;61.302;2023-12-29T10:16:48;5.75;;;2.00;;
74375;SDS011;62812;55.188;61.302;2023-12-29T10:19:23;3.67;;;1.33;;
74375;SDS011;62812;55.188;61.302;2023-12-29T10:22:00;3.45;;;1.23;;
74375;SDS011;62812;55.188;61.302;2023-12-29T10:24:32;3.65;;;1.45;;
74375;SDS011;62812;55.188;61.302;2023-12-29T10:27:01;2.95;;;0.90;;
74375;SDS011;62812;55.188;61.302;2023-12-29T10:29:28;4.55;;;1.70;;
74375;SDS011;62812;55.188;61.302;2023-12-29T10:34:31;2.47;;;0.90;;
74375;SDS011;62812;55.188;61.302;2023-12-29T10:36:58;2.25;;;0.93;;
74375;SDS011;62812;55.188;61.302;2023-12-29T10:39:27;4.80;;;1.58;;
74375;SDS011;62812;55.188;61.302;2023-12-29T10:42:04;3.75;;;1.33;;
74375;SDS011;62812;55.188;61.302;2023-12-29T10:44:33;2.38;;;0.77;;
74375;SDS011;62812;55.188;61.302;2023-12-29T10:47:07;2.25;;;1.17;;
74375;SDS011;62812;55.188;61.302;2023-12-29T10:49:34;2.03;;;0.95;;
74375;SDS011;62812;55.188;61.302;2023-12-29T10:52:03;2.13;;;0.98;;
74375;SDS011;62812;55.188;61.302;2023-12-29T10:54:37;2.30;;;0.73;;
74375;SDS011;62812;55.188;61.302;2023-12-29T10:57:10;2.30;;;0.80;;
74375;SDS011;62812;55.188;61.302;2023-12-29T10:59:40;2.90;;;1.10;;
74375;SDS011;62812;55.188;61.302;2023-12-29T11:02:06;2.70;;;1.10;;
74375;SDS011;62812;55.188;61.302;2023-12-29T11:04:40;3.10;;;0.98;;
74375;SDS011;62812;55.188;61.302;2023-12-29T11:07:07;2.05;;;1.00;;
74375;SDS011;62812;55.188;61.302;2023-12-29T11:09:38;2.45;;;0.98;;
74375;SDS011;62812;55.188;61.302;2023-12-29T11:12:10;2.95;;;1.17;;
74375;SDS011;62812;55.188;61.302;2023-12-29T11:14:39;2.30;;;0.52;;
74375;SDS011;62812;55.188;61.302;2023-12-29T11:17:10;3.58;;;0.85;;
74375;SDS011;62812;55.188;61.302;2023-12-29T11:19:38;6.50;;;1.30;;
74375;SDS011;62812;55.188;61.302;2023-12-29T11:22:42;0.75;;;0.32;;
74375;SDS011;62812;55.188;61.302;2023-12-29T11:25:51;3.92;;;1.23;;
74375;SDS011;62812;55.188;61.302;2023-12-29T11:28:24;3.20;;;1.17;;
74375;SDS011;62812;55.188;61.302;2023-12-29T11:30:51;3.33;;;1.33;;
74375;SDS011;62812;55.188;61.302;2023-12-29T11:33:19;2.13;;;1.27;;
74375;SDS011;62812;55.188;61.302;2023-12-29T11:38:29;3.60;;;1.73;;
74375;SDS011;62812;55.188;61.302;2023-12-29T11:41:08;8.52;;;1.60;;
74375;SDS011;62812;55.188;61.302;2023-12-29T11:43:42;3.60;;;1.30;;
74375;SDS011;62812;55.188;61.302;2023-12-29T11:49:01;2.70;;;1.00;;
74375;SDS011;62812;55.188;61.302;2023-12-29T11:51:31;3.10;;;1.38;;
74375;SDS011;62812;55.188;61.302;2023-12-29T11:53:59;3.80;;;1.33;;
74375;SDS011;62812;55.188;61.302;2023-12-29T11:56:33;1.55;;;0.68;;
74375;SDS011;62812;55.188;61.302;2023-12-29T12:01:48;5.03;;;1.20;;
74375;SDS011;62812;55.188;61.302;2023-12-29T12:07:07;1.80;;;0.80;;
74375;SDS011;62812;55.188;61.302;2023-12-29T12:09:35;1.75;;;0.93;;
74375;SDS011;62812;55.188;61.302;2023-12-29T12:12:03;2.03;;;0.90;;
74375;SDS011;62812;55.188;61.302;2023-12-29T12:14:47;1.60;;;0.55;;
74375;SDS011;62812;55.188;61.302;2023-12-29T12:17:29;2.33;;;0.80;;
74375;SDS011;62812;55.188;61.302;2023-12-29T12:19:59;3.20;;;0.70;;
74375;SDS011;62812;55.188;61.302;2023-12-29T12:22:32;4.25;;;1.55;;
74375;SDS011;62812;55.188;61.302;2023-12-29T12:27:14;2.75;;;1.27;;
74375;SDS011;62812;55.188;61.302;2023-12-29T12:29:10;3.30;;;1.73;;
74375;SDS011;62812;55.188;61.302;2023-12-29T12:31:52;3.95;;;1.45;;
74375;SDS011;62812;55.188;61.302;2023-12-29T12:34:20;3.92;;;1.67;;
74375;SDS011;62812;55.188;61.302;2023-12-29T12:36:51;6.00;;;2.20;;
74375;SDS011;62812;55.188;61.302;2023-12-29T12:39:38;4.72;;;1.58;;
74375;SDS011;62812;55.188;61.302;2023-12-29T12:42:05;4.22;;;1.35;;
74375;SDS011;62812;55.188;61.302;2023-12-29T12:44:34;4.05;;;1.58;;
74375;SDS011;62812;55.188;61.302;2023-12-29T12:47:23;4.45;;;1.40;;
74375;SDS011;62812;55.188;61.302;2023-12-29T12:49:53;5.97;;;1.77;;
74375;SDS011;62812;55.188;61.302;2023-12-29T12:52:23;3.38;;;1.42;;
74375;SDS011;62812;55.188;61.302;2023-12-29T12:54:53;3.15;;;1.40;;
74375;SDS011;62812;55.188;61.302;2023-12-29T12:57:23;3.50;;;1.50;;
74375;SDS011;62812;55.188;61.302;2023-12-29T12:59:53;3.85;;;1.42;;
74375;SDS011;62812;55.188;61.302;2023-12-29T13:02:23;3.83;;;1.42;;
74375;SDS011;62812;55.188;61.302;2023-12-29T13:04:54;6.13;;;2.42;;
74375;SDS011;62812;55.188;61.302;2023-12-29T13:07:41;5.80;;;1.50;;
74375;SDS011;62812;55.188;61.302;2023-12-29T13:10:11;4.70;;;2.10;;
74375;SDS011;62812;55.188;61.302;2023-12-29T13:16:18;6.38;;;2.78;;
74375;SDS011;62812;55.188;61.302;2023-12-29T13:18:56;4.68;;;2.33;;
74375;SDS011;62812;55.188;61.302;2023-12-29T13:21:23;4.20;;;1.88;;
74375;SDS011;62812;55.188;61.302;2023-12-29T13:23:50;4.35;;;2.17;;
74375;SDS011;62812;55.188;61.302;2023-12-29T13:26:20;3.58;;;1.83;;
74375;SDS011;62812;55.188;61.302;2023-12-29T13:28:47;4.97;;;1.85;;
74375;SDS011;62812;55.188;61.302;2023-12-29T13:31:22;2.05;;;1.55;;
74375;SDS011;62812;55.188;61.302;2023-12-29T13:33:51;3.50;;;2.10;;
74375;SDS011;62812;55.188;61.302;2023-12-29T13:36:36;3.55;;;2.00;;
74375;SDS011;62812;55.188;61.302;2023-12-29T13:39:08;5.60;;;2.28;;
74375;SDS011;62812;55.188;61.302;2023-12-29T13:41:41;6.35;;;3.03;;
74375;SDS011;62812;55.188;61.302;2023-12-29T13:44:09;6.45;;;2.50;;
74375;SDS011;62812;55.188;61.302;2023-12-29T13:46:36;4.75;;;2.78;;
74375;SDS011;62812;55.188;61.302;2023-12-29T13:51:39;4.70;;;3.47;;
74375;SDS011;62812;55.188;61.302;2023-12-29T13:54:08;5.38;;;3.05;;
74375;SDS011;62812;55.188;61.302;2023-12-29T13:56:35;5.30;;;2.92;;
74375;SDS011;62812;55.188;61.302;2023-12-29T13:59:04;8.40;;;2.83;;
74375;SDS011;62812;55.188;61.302;2023-12-29T14:01:36;7.00;;;3.35;;
74375;SDS011;62812;55.188;61.302;2023-12-29T14:04:03;6.72;;;2.97;;
74375;SDS011;62812;55.188;61.302;2023-12-29T14:06:39;8.60;;;4.68;;
74375;SDS011;62812;55.188;61.302;2023-12-29T14:09:13;7.60;;;3.25;;
74375;SDS011;62812;55.188;61.302;2023-12-29T14:11:49;5.38;;;3.28;;
74375;SDS011;62812;55.188;61.302;2023-12-29T14:14:23;9.07;;;3.85;;
74375;SDS011;62812;55.188;61.302;2023-12-29T14:17:33;6.60;;;3.20;;
74375;SDS011;62812;55.188;61.302;2023-12-29T14:19:59;5.95;;;4.03;;
74375;SDS011;62812;55.188;61.302;2023-12-29T14:22:33;4.78;;;3.13;;
74375;SDS011;62812;55.188;61.302;2023-12-29T14:25:00;10.18;;;5.18;;
74375;SDS011;62812;55.188;61.302;2023-12-29T14:27:29;5.25;;;3.30;;
74375;SDS011;62812;55.188;61.302;2023-12-29T14:29:56;5.90;;;3.70;;
74375;SDS011;62812;55.188;61.302;2023-12-29T14:32:25;7.25;;;2.85;;
74375;SDS011;62812;55.188;61.302;2023-12-29T14:34:54;4.60;;;2.75;;
74375;SDS011;62812;55.188;61.302;2023-12-29T14:37:22;5.38;;;2.58;;
74375;SDS011;62812;55.188;61.302;2023-12-29T14:39:51;2.08;;;1.50;;
74375;SDS011;62812;55.188;61.302;2023-12-29T14:42:18;3.60;;;2.00;;
74375;SDS011;62812;55.188;61.302;2023-12-29T14:44:46;4.38;;;2.15;;
74375;SDS011;62812;55.188;61.302;2023-12-29T14:47:19;7.95;;;2.67;;
74375;SDS011;62812;55.188;61.302;2023-12-29T14:50:12;4.28;;;2.53;;
74375;SDS011;62812;55.188;61.302;2023-12-29T14:52:41;6.05;;;3.53;;
74375;SDS011;62812;55.188;61.302;2023-12-29T14:55:10;3.75;;;2.10;;
74375;SDS011;62812;55.188;61.302;2023-12-29T14:57:36;4.22;;;3.10;;
74375;SDS011;62812;55.188;61.302;2023-12-29T15:00:04;6.43;;;3.38;;
74375;SDS011;62812;55.188;61.302;2023-12-29T15:02:38;4.18;;;2.28;;
74375;SDS011;62812;55.188;61.302;2023-12-29T15:05:04;5.07;;;1.77;;
74375;SDS011;62812;55.188;61.302;2023-12-29T15:07:32;4.78;;;2.40;;
74375;SDS011;62812;55.188;61.302;2023-12-29T15:10:02;3.92;;;2.03;;
74375;SDS011;62812;55.188;61.302;2023-12-29T15:15:30;9.45;;;3.17;;
74375;SDS011;62812;55.188;61.302;2023-12-29T15:17:56;5.55;;;2.45;;
74375;SDS011;62812;55.188;61.302;2023-12-29T15:20:23;6.43;;;2.85;;
74375;SDS011;62812;55.188;61.302;2023-12-29T15:22:51;4.80;;;2.20;;
74375;SDS011;62812;55.188;61.302;2023-12-29T15:25:20;5.38;;;2.80;;
74375;SDS011;62812;55.188;61.302;2023-12-29T15:27:49;5.13;;;2.55;;
74375;SDS011;62812;55.188;61.302;2023-12-29T15:30:18;4.75;;;2.42;;
74375;SDS011;62812;55.188;61.302;2023-12-29T15:32:45;5.82;;;3.28;;
74375;SDS011;62812;55.188;61.302;2023-12-29T15:35:12;3.65;;;1.92;;
74375;SDS011;62812;55.188;61.302;2023-12-29T15:37:38;5.30;;;2.35;;